createdAt,value
2022-09-12T00:00:52.865Z,3922.9
2022-09-12T00:06:28.719Z,3921.8
2022-09-12T00:12:03.606Z,3922.9
2022-09-12T00:17:39.527Z,3923.5
2022-09-12T00:23:14.185Z,3919.8
2022-09-12T00:28:49.406Z,3920.8
2022-09-12T00:34:46.111Z,3916.8
2022-09-12T00:40:18.947Z,3919.2
2022-09-12T00:45:54.329Z,3918.8
2022-09-12T00:51:29.360Z,3919
2022-09-12T00:57:04.214Z,3920.3
2022-09-12T01:02:40.191Z,3921.5
2022-09-12T01:08:14.862Z,3919.8
2022-09-12T01:13:49.766Z,3918.3
2022-09-12T01:19:24.710Z,3919.7
2022-09-12T01:24:59.773Z,3918
2022-09-12T01:30:34.471Z,3916.8
2022-09-12T01:36:09.576Z,3916.7
2022-09-12T01:41:45.387Z,3918.7
2022-09-12T01:47:20.110Z,3918.2
2022-09-12T01:52:55.094Z,3917.5
2022-09-12T01:58:31.170Z,3916.7
2022-09-12T02:04:06.904Z,3916
2022-09-12T02:09:42.096Z,3913
2022-09-12T02:15:17.975Z,3917.7
2022-09-12T02:20:53.744Z,3917
2022-09-12T02:26:28.524Z,3915.5
2022-09-12T02:32:25.019Z,3912.3
2022-09-12T02:37:58.613Z,3915.8
2022-09-12T02:43:33.406Z,3914.1
2022-09-12T02:49:10.469Z,3913
2022-09-12T02:54:45.451Z,3913
2022-09-12T03:00:21.665Z,3913.6
2022-09-12T03:05:56.432Z,3913.5
2022-09-12T03:11:31.253Z,3912.5
2022-09-12T03:17:07.485Z,3914.1
2022-09-12T03:22:43.257Z,3912.8
2022-09-12T03:28:18.642Z,3912
2022-09-12T03:34:15.245Z,3912.3
2022-09-12T03:39:48.625Z,3911.3
2022-09-12T03:45:23.445Z,3912.1
2022-09-12T03:50:58.377Z,3911.5
2022-09-12T03:56:34.196Z,3911.6
2022-09-12T04:02:11.712Z,3912.3
2022-09-12T04:07:46.510Z,3910
2022-09-12T04:13:21.411Z,3909.5
2022-09-12T04:18:56.283Z,3910.3
2022-09-12T04:24:32.180Z,3913
2022-09-12T04:30:07.237Z,3909.3
2022-09-12T04:35:42.096Z,3908.9
2022-09-12T04:41:16.969Z,3908.1
2022-09-12T04:46:51.962Z,3909.1
2022-09-12T04:52:26.648Z,3908.1
2022-09-12T04:58:01.607Z,3908.1
2022-09-12T05:03:37.945Z,3910.3
2022-09-12T05:09:13.795Z,3910.1
2022-09-12T05:14:48.953Z,3909.6
2022-09-12T05:20:23.597Z,3908.4
2022-09-12T05:25:58.640Z,3907.9
2022-09-12T05:31:55.484Z,3902.4
2022-09-12T05:37:29.130Z,3907.3
2022-09-12T05:43:03.922Z,3906.3
2022-09-12T05:48:38.615Z,3903.9
2022-09-12T05:54:13.655Z,3904.4
2022-09-12T05:59:49.044Z,3900.2
2022-09-12T06:05:23.941Z,3903.8
2022-09-12T06:11:03.388Z,3906.9
2022-09-12T06:16:39.579Z,3911.5
2022-09-12T06:22:15.493Z,3912.1
2022-09-12T06:27:50.291Z,3911.5
2022-09-12T06:33:47.122Z,3909.6
2022-09-12T06:39:21.372Z,3913
2022-09-12T06:44:56.147Z,3913.3
2022-09-12T06:50:31.047Z,3920.2
2022-09-12T06:56:07.499Z,3921.2
2022-09-12T07:01:44.181Z,3919.8
2022-09-12T07:07:19.303Z,3928.4
2022-09-12T07:12:54.631Z,3935.6
2022-09-12T07:18:30.834Z,3945.5
2022-09-12T07:24:16.672Z,3945.3
2022-09-12T07:29:53.752Z,3948.1
2022-09-12T07:35:29.774Z,3954.5
2022-09-12T07:41:05.023Z,3960.4
2022-09-12T07:46:40.525Z,3968.1
2022-09-12T07:52:16.574Z,3961.2
2022-09-12T07:57:51.855Z,4043.1
2022-09-12T08:03:27.258Z,3962.7
2022-09-12T08:09:02.897Z,4091.2
2022-09-12T08:14:38.788Z,4093.7
2022-09-12T08:20:14.539Z,4096.2
2022-09-12T08:25:49.697Z,4102.4
2022-09-12T08:31:46.372Z,4104.1
2022-09-12T08:37:19.388Z,4108.8
2022-09-12T08:42:54.542Z,4117.5
2022-09-12T08:48:30.560Z,4121
2022-09-12T08:54:05.604Z,4129.2
2022-09-12T08:59:40.404Z,4138.8
2022-09-12T09:05:15.208Z,4144.6
2022-09-12T09:10:50.532Z,4151.2
2022-09-12T09:16:27.336Z,4160.2
2022-09-12T09:22:02.217Z,4169.1
2022-09-12T09:27:43.184Z,4173.4
2022-09-12T09:33:18.126Z,4176.6
2022-09-12T09:38:55.256Z,4181.8
2022-09-12T09:44:30.213Z,4185.8
2022-09-12T09:50:05.154Z,4187
2022-09-12T09:55:40.201Z,4189.2
2022-09-12T10:01:16.162Z,4193.5
2022-09-12T10:06:51.171Z,4198.4
2022-09-12T10:12:26.549Z,4198.7
2022-09-12T10:18:02.527Z,4201.1
2022-09-12T10:23:37.647Z,4201.4
2022-09-12T10:29:12.422Z,4200.9
2022-09-12T10:34:47.425Z,4201.2
2022-09-12T10:40:23.463Z,4201.6
2022-09-12T10:46:00.174Z,4202.4
2022-09-12T10:51:35.829Z,4202.4
2022-09-12T10:57:11.107Z,4204.1
2022-09-12T11:02:46.883Z,4205.4
2022-09-12T11:08:22.128Z,4205.8
2022-09-12T11:13:57.209Z,4207.1
2022-09-12T11:19:32.347Z,4208.8
2022-09-12T11:25:07.331Z,4209.9
2022-09-12T11:30:43.008Z,4211.1
2022-09-12T11:36:18.201Z,4211.8
2022-09-12T11:41:53.156Z,4205.3
2022-09-12T11:47:28.419Z,4188.2
2022-09-12T11:53:03.320Z,4201.7
2022-09-12T11:58:40.322Z,4209.8
2022-09-12T12:04:16.404Z,4200.9
2022-09-12T12:09:52.078Z,4200.6
2022-09-12T12:15:27.334Z,4213.1
2022-09-12T12:21:02.387Z,4196.9
2022-09-12T12:26:37.383Z,4204.1
2022-09-12T12:32:12.683Z,4190.7
2022-09-12T12:37:47.556Z,4188.5
2022-09-12T12:43:23.355Z,4194.2
2022-09-12T12:48:59.198Z,4195.7
2022-09-12T12:54:35.022Z,4192.2
2022-09-12T13:00:10.876Z,4202.7
2022-09-12T13:05:46.246Z,4208.8
2022-09-12T13:11:21.592Z,4210.4
2022-09-12T13:16:56.512Z,4206.3
2022-09-12T13:22:31.659Z,4212.6
2022-09-12T13:28:06.735Z,4193.4
2022-09-12T13:33:42.313Z,4195.2
2022-09-12T13:39:18.643Z,4201.2
2022-09-12T13:44:54.522Z,4205.4
2022-09-12T13:50:29.637Z,4216.3
2022-09-12T13:56:05.467Z,4202.4
2022-09-12T14:01:41.519Z,4211.3
2022-09-12T14:07:16.380Z,4213.8
2022-09-12T14:12:51.634Z,4209.3
2022-09-12T14:18:26.759Z,4207.8
2022-09-12T14:24:01.789Z,4220.3
2022-09-12T14:29:36.613Z,4213.6
2022-09-12T14:35:11.508Z,4208.9
2022-09-12T14:40:47.347Z,4212.1
2022-09-12T14:46:25.034Z,4220.8
2022-09-12T14:52:00.129Z,4218.2
2022-09-12T14:57:35.145Z,4213.1
2022-09-12T15:03:09.886Z,4219.5
2022-09-12T15:08:45.695Z,4215.1
2022-09-12T15:14:20.633Z,4222.8
2022-09-12T15:19:55.767Z,4217
2022-09-12T15:25:31.524Z,4217.1
2022-09-12T15:31:07.288Z,4225.9
2022-09-12T15:36:43.870Z,4214.6
2022-09-12T15:42:19.638Z,4217
2022-09-12T15:47:54.476Z,4223
2022-09-12T15:53:29.963Z,4219.3
2022-09-12T15:59:04.639Z,4215.6
2022-09-12T16:04:39.452Z,4219.3
2022-09-12T16:10:14.613Z,4214.3
2022-09-12T16:15:50.288Z,4210.6
2022-09-12T16:21:25.110Z,4214
2022-09-12T16:27:03.694Z,4212.3
2022-09-12T16:32:39.069Z,4212.3
2022-09-12T16:38:13.903Z,4213.5
2022-09-12T16:43:48.671Z,4206.9
2022-09-12T16:49:23.464Z,4206.8
2022-09-12T16:54:58.555Z,4208.8
2022-09-12T17:00:33.929Z,4206.9
2022-09-12T17:06:08.860Z,4209.1
2022-09-12T17:11:43.643Z,4209.9
2022-09-12T17:17:18.988Z,4208.8
2022-09-12T17:22:53.717Z,4208.6
2022-09-12T17:28:29.735Z,4209.6
2022-09-12T17:34:04.801Z,4207.9
2022-09-12T17:39:41.110Z,4206.4
2022-09-12T17:45:19.691Z,4205.9
2022-09-12T17:50:55.603Z,4202.6
2022-09-12T17:56:30.336Z,4202.9
2022-09-12T18:02:06.430Z,4203.1
2022-09-12T18:07:45.495Z,4202.6
2022-09-12T18:13:20.509Z,4201.7
2022-09-12T18:18:56.053Z,4202.4
2022-09-12T18:24:31.832Z,4202.9
2022-09-12T18:30:23.218Z,4201.6
2022-09-12T18:35:59.061Z,4201.9
2022-09-12T18:41:34.536Z,4200.7
2022-09-12T18:47:09.259Z,4200.4
2022-09-12T18:52:43.873Z,4200.7
2022-09-12T18:58:19.167Z,4199.9
2022-09-12T19:03:54.276Z,4198.7
2022-09-12T19:09:29.173Z,4198.9
2022-09-12T19:15:04.941Z,4200.9
2022-09-12T19:20:39.865Z,4199.1
2022-09-12T19:26:14.882Z,4199.2
2022-09-12T19:31:50.423Z,4198.9
2022-09-12T19:37:25.289Z,4198.1
2022-09-12T19:43:00.405Z,4199.1
2022-09-12T19:48:35.540Z,4199.1
2022-09-12T19:54:10.631Z,4199.2
2022-09-12T19:59:45.314Z,4197.9
2022-09-12T20:05:21.580Z,4198.1
2022-09-12T20:10:58.162Z,4197.7
2022-09-12T20:16:34.141Z,4197.7
2022-09-12T20:22:09.708Z,4195.9
2022-09-12T20:27:45.628Z,4197.7
2022-09-12T20:33:20.534Z,4198.7
2022-09-12T20:38:55.978Z,4197.4
2022-09-12T20:44:30.989Z,4197.7
2022-09-12T20:50:05.840Z,4196.5
2022-09-12T20:55:41.205Z,4196.9
2022-09-12T21:01:18.301Z,4196.4
2022-09-12T21:06:53.402Z,4196
2022-09-12T21:12:28.603Z,4195.7
2022-09-12T21:18:03.496Z,4195.7
2022-09-12T21:23:39.646Z,4195
2022-09-12T21:29:16.031Z,4193.9
2022-09-12T21:34:51.184Z,4194.5
2022-09-12T21:40:26.035Z,4195.5
2022-09-12T21:46:05.067Z,4187.3
2022-09-12T21:51:40.235Z,4192
2022-09-12T21:57:15.322Z,4191.5
2022-09-12T22:02:50.255Z,4193.4
2022-09-12T22:08:25.169Z,4191
2022-09-12T22:13:59.974Z,4190.5
2022-09-12T22:19:35.155Z,4191.9
2022-09-12T22:25:09.888Z,4191.2
2022-09-12T22:30:44.866Z,4191.5
2022-09-12T22:36:20.449Z,4190.5
2022-09-12T22:41:55.816Z,4191.9
2022-09-12T22:47:31.778Z,4189
2022-09-12T22:53:08.081Z,4191.4
2022-09-12T22:58:43.024Z,4188.2
2022-09-12T23:04:17.881Z,4188
2022-09-12T23:09:53.228Z,4191.7
2022-09-12T23:15:29.176Z,4192.2
2022-09-12T23:21:03.993Z,4189
2022-09-12T23:26:39.183Z,4189.8
2022-09-12T23:32:15.180Z,4187.8
2022-09-12T23:37:50.850Z,4188
2022-09-12T23:43:26.759Z,4189.8
2022-09-12T23:49:01.570Z,4185.3
2022-09-12T23:54:36.354Z,4186.3
